createdAt,value
2022-12-31T03:32:53.289Z,0.47
2022-12-31T03:35:58.273Z,0.87
2022-12-31T03:39:02.117Z,0.57
2022-12-31T03:42:06.265Z,0.63
2022-12-31T03:45:12.132Z,0.70
2022-12-31T03:48:17.364Z,0.50
2022-12-31T03:51:21.420Z,0.60
2022-12-31T03:54:25.298Z,0.67
2022-12-31T16:23:27.542Z,0.70
2022-12-31T16:26:35.656Z,1.00
2022-12-31T16:29:43.915Z,0.70
2022-12-31T16:32:50.237Z,0.70
2022-12-31T16:35:56.512Z,0.50
2022-12-31T16:42:22.414Z,0.53
2022-12-31T16:45:32.353Z,0.43
2022-12-31T16:48:36.434Z,0.30
2022-12-31T16:51:41.074Z,0.60
2022-12-31T16:54:48.570Z,0.40
2022-12-31T16:57:57.993Z,0.53
2022-12-31T17:01:10.955Z,0.50
2022-12-31T17:04:19.850Z,0.47
2022-12-31T17:07:38.109Z,0.60
2022-12-31T17:10:43.620Z,0.60
2022-12-31T17:13:57.115Z,0.47
2022-12-31T17:17:04.111Z,0.30
2022-12-31T17:20:10.047Z,0.37
2022-12-31T17:23:23.834Z,1.53
2022-12-31T17:26:30.373Z,0.37
2022-12-31T17:29:35.945Z,0.57
2022-12-31T17:32:40.012Z,0.60
2022-12-31T17:35:46.160Z,1.00
2022-12-31T17:38:50.306Z,1.20
2022-12-31T17:41:57.513Z,1.40
2022-12-31T17:45:04.794Z,1.03
2022-12-31T17:48:11.265Z,0.50
2022-12-31T17:51:15.113Z,0.50
2022-12-31T17:54:20.054Z,0.60
2022-12-31T17:57:27.874Z,0.20
2022-12-31T18:00:34.174Z,0.47
2022-12-31T18:03:38.008Z,0.30
2022-12-31T18:06:42.240Z,0.50
2022-12-31T18:09:46.074Z,0.33
2022-12-31T18:12:50.912Z,0.37
2022-12-31T18:15:56.452Z,0.60
2022-12-31T18:19:01.614Z,0.47
2022-12-31T18:22:05.518Z,0.60
2022-12-31T18:25:13.874Z,0.20
2022-12-31T18:28:17.732Z,0.53
2022-12-31T18:31:25.227Z,0.80
2022-12-31T18:34:29.187Z,3.40
2022-12-31T18:37:34.835Z,1.90
2022-12-31T18:40:42.781Z,0.50
2022-12-31T18:43:47.221Z,0.53
2022-12-31T18:46:52.407Z,0.70
2022-12-31T18:49:59.598Z,0.40
2022-12-31T18:53:03.465Z,0.40
2022-12-31T18:56:11.156Z,0.77
2022-12-31T18:59:15.681Z,0.53
2022-12-31T19:02:21.881Z,0.67
2022-12-31T19:05:29.154Z,0.60
2022-12-31T19:08:33.549Z,0.50
2022-12-31T19:11:37.898Z,0.60
2022-12-31T19:14:41.711Z,1.00
2022-12-31T19:17:46.952Z,1.07
2022-12-31T19:20:52.783Z,1.40
2022-12-31T19:23:56.631Z,0.87
2022-12-31T19:27:01.908Z,0.80
2022-12-31T19:30:06.741Z,1.00
2022-12-31T19:33:12.090Z,0.80
2022-12-31T19:36:17.476Z,1.03
2022-12-31T19:39:22.339Z,0.70
2022-12-31T19:42:26.272Z,0.97
2022-12-31T19:45:32.096Z,0.60
2022-12-31T19:48:37.390Z,1.07
2022-12-31T19:51:41.356Z,0.67
2022-12-31T19:54:45.221Z,0.80
2022-12-31T19:57:49.937Z,0.90
2022-12-31T20:01:01.699Z,0.87
2022-12-31T20:04:08.093Z,0.67
2022-12-31T20:07:12.005Z,0.77
2022-12-31T20:10:16.062Z,0.90
2022-12-31T20:13:20.135Z,1.07
2022-12-31T20:16:29.678Z,0.90
2022-12-31T20:19:35.044Z,0.90
2022-12-31T20:22:38.904Z,1.00
2022-12-31T20:25:42.917Z,0.87
2022-12-31T20:28:46.990Z,0.80
2022-12-31T20:31:50.926Z,1.10
2022-12-31T20:34:56.111Z,0.93
2022-12-31T20:37:59.991Z,1.23
2022-12-31T20:41:05.438Z,0.83
2022-12-31T20:44:09.486Z,1.10
2022-12-31T20:47:13.362Z,1.10
2022-12-31T20:50:19.145Z,0.80
2022-12-31T20:53:22.958Z,0.90
2022-12-31T20:56:28.842Z,1.03
2022-12-31T20:59:32.708Z,1.10
2022-12-31T21:02:42.129Z,1.57
2022-12-31T21:05:52.067Z,1.10
2022-12-31T21:08:56.270Z,1.60
2022-12-31T21:12:17.660Z,1.80
2022-12-31T21:15:22.516Z,1.53
2022-12-31T21:18:26.322Z,1.50
2022-12-31T21:21:31.519Z,1.50
2022-12-31T21:24:35.333Z,1.07
2022-12-31T21:27:39.170Z,1.40
2022-12-31T21:30:43.343Z,1.30
2022-12-31T21:33:48.531Z,1.40
2022-12-31T21:36:53.706Z,1.53
2022-12-31T21:39:57.525Z,1.30
2022-12-31T21:43:01.602Z,1.40
2022-12-31T21:46:07.515Z,1.67
2022-12-31T21:49:11.455Z,1.37
2022-12-31T21:52:30.594Z,1.50
2022-12-31T21:55:51.968Z,1.50
2022-12-31T21:59:15.612Z,1.40
2022-12-31T22:02:59.683Z,1.40
2022-12-31T22:06:10.165Z,1.50
2022-12-31T22:09:15.715Z,1.87
2022-12-31T22:12:19.624Z,1.47
2022-12-31T22:15:23.408Z,1.50
2022-12-31T22:18:27.970Z,1.60
2022-12-31T22:21:31.819Z,1.73
2022-12-31T22:24:37.051Z,1.83
2022-12-31T22:27:40.831Z,1.80
2022-12-31T22:30:48.655Z,1.57
2022-12-31T22:33:53.217Z,1.87
2022-12-31T22:36:57.024Z,1.80
2022-12-31T22:40:02.252Z,1.70
2022-12-31T22:43:06.102Z,2.40
2022-12-31T22:46:11.377Z,1.80
2022-12-31T22:49:17.111Z,2.10
2022-12-31T22:52:20.935Z,1.90
2022-12-31T22:55:26.107Z,2.07
2022-12-31T22:58:30.206Z,2.00
2022-12-31T23:01:34.570Z,2.20
2022-12-31T23:04:38.495Z,11.37
2022-12-31T23:07:42.314Z,6.50
